createdAt,value
2018-07-28T00:00:02.107Z,41.36
2018-07-28T00:01:11.809Z,40.97
2018-07-28T00:02:21.494Z,41.17
2018-07-28T00:03:30.641Z,40.97
2018-07-28T00:04:40.297Z,41.05
2018-07-28T00:05:49.187Z,41.07
2018-07-28T00:06:58.643Z,41.17
2018-07-28T00:08:07.765Z,41.05
2018-07-28T00:09:17.238Z,40.97
2018-07-28T00:10:26.909Z,41.07
2018-07-28T00:11:36.065Z,40.97
2018-07-28T00:12:45.468Z,40.86
2018-07-28T00:13:55.148Z,41.17
2018-07-28T00:15:04.557Z,41.05
2018-07-28T00:16:14.222Z,41.17
2018-07-28T00:17:23.906Z,41.07
2018-07-28T00:18:33.067Z,41.07
2018-07-28T00:19:42.465Z,41.07
2018-07-28T00:20:51.877Z,41.17
2018-07-28T00:22:01.287Z,41.17
2018-07-28T00:23:10.447Z,41.07
2018-07-28T00:24:19.598Z,41.27
2018-07-28T00:25:28.742Z,41.25
2018-07-28T00:26:37.884Z,40.88
2018-07-28T00:27:47.290Z,40.68
2018-07-28T00:28:55.929Z,40.66
2018-07-28T00:30:05.075Z,40.76
2018-07-28T00:31:14.232Z,40.86
2018-07-28T00:32:23.638Z,40.76
2018-07-28T00:33:32.530Z,40.76
2018-07-28T00:34:41.444Z,40.76
2018-07-28T00:35:50.591Z,40.95
2018-07-28T00:36:59.751Z,40.76
2018-07-28T00:38:09.670Z,40.86
2018-07-28T00:39:18.830Z,40.76
2018-07-28T00:40:27.983Z,40.76
2018-07-28T00:41:37.128Z,40.86
2018-07-28T00:42:46.538Z,40.76
2018-07-28T00:43:55.464Z,40.86
2018-07-28T00:45:04.887Z,40.76
2018-07-28T00:46:14.037Z,40.66
2018-07-28T00:47:23.695Z,40.95
2018-07-28T00:48:33.350Z,40.95
2018-07-28T00:49:42.531Z,41.05
2018-07-28T00:50:51.939Z,40.95
2018-07-28T00:52:01.344Z,40.95
2018-07-28T00:53:10.763Z,40.86
2018-07-28T00:54:19.689Z,40.95
2018-07-28T00:55:28.592Z,40.95
2018-07-28T00:56:38.009Z,40.66
2018-07-28T00:57:47.417Z,41.05
2018-07-28T00:58:56.052Z,41.05
2018-07-28T01:00:05.196Z,40.56
2018-07-28T01:01:14.771Z,40.47
2018-07-28T01:02:23.691Z,41.05
2018-07-28T01:03:32.578Z,40.37
2018-07-28T01:04:42.236Z,40.47
2018-07-28T01:05:51.380Z,40.47
2018-07-28T01:07:00.786Z,40.37
2018-07-28T01:08:10.214Z,40.47
2018-07-28T01:09:19.899Z,40.56
2018-07-28T01:10:29.306Z,40.47
2018-07-28T01:11:38.975Z,40.37
2018-07-28T01:12:48.674Z,40.08
2018-07-28T01:13:58.329Z,40.08
2018-07-28T01:15:08.010Z,40.37
2018-07-28T01:16:17.663Z,40.37
2018-07-28T01:17:26.566Z,40.37
2018-07-28T01:18:35.986Z,40.47
2018-07-28T01:19:45.154Z,40.37
2018-07-28T01:20:54.097Z,40.37
2018-07-28T01:22:03.770Z,40.27
2018-07-28T01:23:13.182Z,40.17
2018-07-28T01:24:22.335Z,40.27
2018-07-28T01:25:31.479Z,40.17
2018-07-28T01:26:40.910Z,40.37
2018-07-28T01:27:49.797Z,40.47
2018-07-28T01:28:58.966Z,40.37
2018-07-28T01:30:08.379Z,40.47
2018-07-28T01:31:17.789Z,40.47
2018-07-28T01:32:27.438Z,40.27
2018-07-28T01:33:36.608Z,40.47
2018-07-28T01:34:46.279Z,40.56
2018-07-28T01:35:55.696Z,40.35
2018-07-28T01:37:04.858Z,40.55
2018-07-28T01:38:14.537Z,40.27
2018-07-28T01:39:23.681Z,40.27
2018-07-28T01:40:32.826Z,40.16
2018-07-28T01:41:42.262Z,40.16
2018-07-28T01:42:51.148Z,40.06
2018-07-28T01:44:01.064Z,39.98
2018-07-28T01:45:10.749Z,40.17
2018-07-28T01:46:19.891Z,40.17
2018-07-28T01:47:28.833Z,40.35
2018-07-28T01:48:38.253Z,40.16
2018-07-28T01:49:47.671Z,40.06
2018-07-28T01:50:57.087Z,40.35
2018-07-28T01:52:06.256Z,40.35
2018-07-28T01:53:15.164Z,40.16
2018-07-28T01:54:24.316Z,40.16
2018-07-28T01:55:33.220Z,40.16
2018-07-28T01:56:42.365Z,40.16
2018-07-28T01:57:51.531Z,40.06
2018-07-28T01:59:01.200Z,40.25
2018-07-28T02:00:10.376Z,40.25
2018-07-28T02:01:19.820Z,40.16
2018-07-28T02:02:29.474Z,40.16
2018-07-28T02:03:38.899Z,40.16
2018-07-28T02:04:48.332Z,40.16
2018-07-28T02:05:57.744Z,40.35
2018-07-28T02:07:06.908Z,39.96
2018-07-28T02:08:16.316Z,39.96
2018-07-28T02:09:25.508Z,40.25
2018-07-28T02:10:34.661Z,40.06
2018-07-28T02:11:44.082Z,40.06
2018-07-28T02:12:53.246Z,40.06
2018-07-28T02:14:03.160Z,40.06
2018-07-28T02:15:12.823Z,39.96
2018-07-28T02:16:21.970Z,39.96
2018-07-28T02:17:30.876Z,40.06
2018-07-28T02:18:40.037Z,40.06
2018-07-28T02:19:49.450Z,40.06
2018-07-28T02:20:59.099Z,39.96
2018-07-28T02:22:08.006Z,40.06
2018-07-28T02:23:16.896Z,39.57
2018-07-28T02:24:26.313Z,39.96
2018-07-28T02:25:35.216Z,39.86
2018-07-28T02:26:44.383Z,39.86
2018-07-28T02:27:53.039Z,39.86
2018-07-28T02:29:02.193Z,39.67
2018-07-28T02:30:11.592Z,39.57
2018-07-28T02:31:21.541Z,39.86
2018-07-28T02:32:30.706Z,40.06
2018-07-28T02:33:40.418Z,39.76
2018-07-28T02:34:49.835Z,39.86
2018-07-28T02:35:59.321Z,39.86
2018-07-28T02:37:08.735Z,39.76
2018-07-28T02:38:17.910Z,39.76
2018-07-28T02:39:27.595Z,39.76
2018-07-28T02:40:37.276Z,39.86
2018-07-28T02:41:46.968Z,39.86
2018-07-28T02:42:56.372Z,39.96
2018-07-28T02:44:05.533Z,39.76
2018-07-28T02:45:15.473Z,39.67
2018-07-28T02:46:25.424Z,39.86
2018-07-28T02:47:35.119Z,39.86
2018-07-28T02:48:44.542Z,39.96
2018-07-28T02:49:54.226Z,39.86
2018-07-28T02:51:03.636Z,39.96
2018-07-28T02:52:13.571Z,39.96
2018-07-28T02:53:23.024Z,39.86
2018-07-28T02:54:32.216Z,40.06
2018-07-28T02:55:42.135Z,39.86
2018-07-28T02:56:51.302Z,39.86
2018-07-28T02:58:00.721Z,39.86
2018-07-28T02:59:10.150Z,39.96
2018-07-28T03:00:19.586Z,39.86
2018-07-28T03:01:30.020Z,39.67
2018-07-28T03:02:39.700Z,39.96
2018-07-28T03:03:49.108Z,39.96
2018-07-28T03:04:58.064Z,39.96
2018-07-28T03:06:07.236Z,39.96
2018-07-28T03:07:17.178Z,39.96
2018-07-28T03:08:26.332Z,39.76
2018-07-28T03:09:35.769Z,40.06
2018-07-28T03:10:45.446Z,39.86
2018-07-28T03:11:55.197Z,39.76
2018-07-28T03:13:04.349Z,40.06
2018-07-28T03:14:14.275Z,39.86
2018-07-28T03:15:23.712Z,39.86
2018-07-28T03:16:32.901Z,39.76
2018-07-28T03:17:42.823Z,39.76
2018-07-28T03:18:52.775Z,39.86
2018-07-28T03:20:02.437Z,39.65
2018-07-28T03:21:11.856Z,39.86
2018-07-28T03:22:21.293Z,39.76
2018-07-28T03:23:30.718Z,39.86
2018-07-28T03:24:40.406Z,39.86
2018-07-28T03:25:49.830Z,39.86
2018-07-28T03:26:59.670Z,39.76
2018-07-28T03:28:09.350Z,39.76
2018-07-28T03:29:19.041Z,39.86
2018-07-28T03:30:28.706Z,39.86
2018-07-28T03:31:38.380Z,39.94
2018-07-28T03:32:48.336Z,39.94
2018-07-28T03:33:57.234Z,39.75
2018-07-28T03:35:06.394Z,39.86
2018-07-28T03:36:16.312Z,39.76
2018-07-28T03:37:25.972Z,39.96
2018-07-28T03:38:35.631Z,39.94
2018-07-28T03:39:45.290Z,40.03
2018-07-28T03:40:54.176Z,39.75
2018-07-28T03:42:03.072Z,39.75
2018-07-28T03:43:12.501Z,39.86
2018-07-28T03:44:22.175Z,39.84
2018-07-28T03:45:31.864Z,39.84
2018-07-28T03:46:41.522Z,39.84
2018-07-28T03:47:51.185Z,40.06
2018-07-28T03:49:00.329Z,39.84
2018-07-28T03:50:09.532Z,39.94
2018-07-28T03:51:19.481Z,39.94
2018-07-28T03:52:28.633Z,39.96
2018-07-28T03:53:37.782Z,39.94
2018-07-28T03:54:46.957Z,39.84
2018-07-28T03:55:56.356Z,39.76
2018-07-28T03:57:05.508Z,39.76
2018-07-28T03:58:14.414Z,39.96
2018-07-28T03:59:23.578Z,39.84
2018-07-28T04:00:32.758Z,39.67
2018-07-28T04:01:41.909Z,39.67
2018-07-28T04:02:50.808Z,39.96
2018-07-28T04:04:00.222Z,39.86
2018-07-28T04:05:10.198Z,39.94
2018-07-28T04:06:19.615Z,39.96
2018-07-28T04:07:29.032Z,39.84
2018-07-28T04:08:38.241Z,39.76
2018-07-28T04:09:47.914Z,39.86
2018-07-28T04:10:57.596Z,39.67
2018-07-28T04:12:06.480Z,39.75
2018-07-28T04:13:16.404Z,39.96
2018-07-28T04:14:25.598Z,39.76
2018-07-28T04:15:35.029Z,39.96
2018-07-28T04:16:43.925Z,39.94
2018-07-28T04:17:53.849Z,39.96
2018-07-28T04:19:03.512Z,39.94
2018-07-28T04:20:12.925Z,39.57
2018-07-28T04:21:22.337Z,39.67
2018-07-28T04:22:31.746Z,39.76
2018-07-28T04:23:41.233Z,39.86
2018-07-28T04:24:50.908Z,39.96
2018-07-28T04:26:00.566Z,40.16
2018-07-28T04:27:09.986Z,40.16
2018-07-28T04:28:19.658Z,40.33
2018-07-28T04:29:29.261Z,40.13
2018-07-28T04:30:38.883Z,39.96
2018-07-28T04:31:48.534Z,40.35
2018-07-28T04:32:57.681Z,39.96
2018-07-28T04:34:07.086Z,40.16
2018-07-28T04:35:16.503Z,40.16
2018-07-28T04:36:25.916Z,40.13
2018-07-28T04:37:35.330Z,40.16
2018-07-28T04:38:44.265Z,40.16
2018-07-28T04:39:53.675Z,40.06
2018-07-28T04:41:03.085Z,40.16
2018-07-28T04:42:12.496Z,40.16
2018-07-28T04:43:21.651Z,40.35
2018-07-28T04:44:30.556Z,40.33
2018-07-28T04:45:40.222Z,40.23
2018-07-28T04:46:49.650Z,40.33
2018-07-28T04:47:58.544Z,40.42
2018-07-28T04:49:07.969Z,40.42
2018-07-28T04:50:17.375Z,40.52
2018-07-28T04:51:27.729Z,41.01
2018-07-28T04:52:37.803Z,40.81
2018-07-28T04:53:47.464Z,40.62
2018-07-28T04:54:56.353Z,40.72
2018-07-28T04:56:06.013Z,40.72
2018-07-28T04:57:15.421Z,40.72
2018-07-28T04:58:24.580Z,40.81
2018-07-28T04:59:33.728Z,40.81
2018-07-28T05:00:42.870Z,40.72
2018-07-28T05:01:52.011Z,40.72
2018-07-28T05:03:00.906Z,40.72
2018-07-28T05:04:10.559Z,40.62
2018-07-28T05:05:19.468Z,40.72
2018-07-28T05:06:28.110Z,40.81
2018-07-28T05:07:38.157Z,40.62
2018-07-28T05:08:49.115Z,40.62
2018-07-28T05:09:58.262Z,40.62
2018-07-28T05:11:07.413Z,40.72
2018-07-28T05:12:16.564Z,41.2
2018-07-28T05:13:25.976Z,41.2
2018-07-28T05:14:35.404Z,40.62
2018-07-28T05:15:44.298Z,41.2
2018-07-28T05:16:53.729Z,40.62
2018-07-28T05:18:02.434Z,41.01
2018-07-28T05:19:11.597Z,41.01
2018-07-28T05:20:20.753Z,41.01
2018-07-28T05:21:29.645Z,41.11
2018-07-28T05:22:39.049Z,41.2
2018-07-28T05:23:48.671Z,40.81
2018-07-28T05:24:58.457Z,40.91
2018-07-28T05:26:08.111Z,41.01
2018-07-28T05:27:17.266Z,40.91
2018-07-28T05:28:26.423Z,40.91
2018-07-28T05:29:35.662Z,41.2
2018-07-28T05:30:45.647Z,41.01
2018-07-28T05:31:55.067Z,41.2
2018-07-28T05:33:03.951Z,41.11
2018-07-28T05:34:13.629Z,41.01
2018-07-28T05:35:22.794Z,41.11
2018-07-28T05:36:31.956Z,41.11
2018-07-28T05:37:41.884Z,41.11
2018-07-28T05:38:51.364Z,41.01
2018-07-28T05:40:01.447Z,40.91
2018-07-28T05:41:11.119Z,41.01
2018-07-28T05:42:20.272Z,40.91
2018-07-28T05:43:29.468Z,41.01
2018-07-28T05:44:38.886Z,41.4
2018-07-28T05:45:48.296Z,41.2
2018-07-28T05:46:58.159Z,41.2
2018-07-28T05:48:07.820Z,41.11
2018-07-28T05:49:17.245Z,41.01
2018-07-28T05:50:26.411Z,41.2
2018-07-28T05:51:35.307Z,41.2
2018-07-28T05:52:44.971Z,41.4
2018-07-28T05:53:53.884Z,41.4
2018-07-28T05:55:03.047Z,41.11
2018-07-28T05:56:12.201Z,41.3
2018-07-28T05:57:21.346Z,41.2
2018-07-28T05:58:30.751Z,41.2
2018-07-28T05:59:39.919Z,41.11
2018-07-28T06:00:49.335Z,41.4
2018-07-28T06:01:58.750Z,41.2
2018-07-28T06:03:07.975Z,41.4
2018-07-28T06:04:17.634Z,41.2
2018-07-28T06:05:27.300Z,41.4
2018-07-28T06:06:36.712Z,41.6
2018-07-28T06:07:45.354Z,41.5
2018-07-28T06:08:54.754Z,41.4
2018-07-28T06:10:03.900Z,41.2
2018-07-28T06:11:12.817Z,41.2
2018-07-28T06:12:21.980Z,41.4
2018-07-28T06:13:31.647Z,41.3
2018-07-28T06:14:41.071Z,41.6
2018-07-28T06:15:50.288Z,41.5
2018-07-28T06:16:59.982Z,41.5
2018-07-28T06:18:09.144Z,41.6
2018-07-28T06:19:18.035Z,41.6
2018-07-28T06:20:27.637Z,41.69
2018-07-28T06:21:37.070Z,41.69
2018-07-28T06:22:46.503Z,41.6
2018-07-28T06:23:55.923Z,41.6
2018-07-28T06:25:05.070Z,41.69
2018-07-28T06:26:14.232Z,41.6
2018-07-28T06:27:23.133Z,41.6
2018-07-28T06:28:32.533Z,41.69
2018-07-28T06:29:41.965Z,41.6
2018-07-28T06:30:51.124Z,41.69
2018-07-28T06:32:00.714Z,41.69
2018-07-28T06:33:09.882Z,41.6
2018-07-28T06:34:19.062Z,41.6
2018-07-28T06:35:27.953Z,41.79
2018-07-28T06:36:37.446Z,41.6
2018-07-28T06:37:46.964Z,41.69
2018-07-28T06:38:55.879Z,41.6
2018-07-28T06:40:05.028Z,41.69
2018-07-28T06:41:14.537Z,41.89
2018-07-28T06:42:23.717Z,41.69
2018-07-28T06:43:33.156Z,41.89
2018-07-28T06:44:42.310Z,41.6
2018-07-28T06:45:51.719Z,41.6
2018-07-28T06:47:00.618Z,42.08
2018-07-28T06:48:10.346Z,41.69
2018-07-28T06:49:19.249Z,42.38
2018-07-28T06:50:28.465Z,42.18
2018-07-28T06:51:38.406Z,42.08
2018-07-28T06:52:47.820Z,42.28
2018-07-28T06:53:56.725Z,42.08
2018-07-28T06:55:06.305Z,42.08
2018-07-28T06:56:16.671Z,42.18
2018-07-28T06:57:26.095Z,42.18
2018-07-28T06:58:35.296Z,42.08
2018-07-28T06:59:44.725Z,42.18
2018-07-28T07:00:54.431Z,42.18
2018-07-28T07:02:03.064Z,41.99
2018-07-28T07:03:11.700Z,42.47
2018-07-28T07:04:21.102Z,42.18
2018-07-28T07:05:30.808Z,42.08
2018-07-28T07:06:40.748Z,42.18
2018-07-28T07:07:50.176Z,42.08
2018-07-28T07:08:59.325Z,42.28
2018-07-28T07:10:08.758Z,42.18
2018-07-28T07:11:18.782Z,42.38
2018-07-28T07:12:27.680Z,42.57
2018-07-28T07:13:37.358Z,41.99
2018-07-28T07:14:46.564Z,42.47
2018-07-28T07:15:55.981Z,42.66
2018-07-28T07:17:05.709Z,42.47
2018-07-28T07:18:14.874Z,42.47
2018-07-28T07:19:23.783Z,42.57
2018-07-28T07:20:33.219Z,42.66
2018-07-28T07:21:42.196Z,42.47
2018-07-28T07:22:51.618Z,42.47
2018-07-28T07:24:00.776Z,42.47
2018-07-28T07:25:09.965Z,42.38
2018-07-28T07:26:19.649Z,42.47
2018-07-28T07:27:28.818Z,42.57
2018-07-28T07:28:38.755Z,42.47
2018-07-28T07:29:48.203Z,42.47
2018-07-28T07:30:57.617Z,42.18
2018-07-28T07:32:07.027Z,42.57
2018-07-28T07:33:16.437Z,42.66
2018-07-28T07:34:25.595Z,42.28
2018-07-28T07:35:34.490Z,42.66
2018-07-28T07:36:43.382Z,42.86
2018-07-28T07:37:53.083Z,42.38
2018-07-28T07:39:01.720Z,42.66
2018-07-28T07:40:11.164Z,42.76
2018-07-28T07:41:20.826Z,42.18
2018-07-28T07:42:30.243Z,42.28
2018-07-28T07:43:39.641Z,42.79
2018-07-28T07:44:48.826Z,42.49
2018-07-28T07:45:58.259Z,42.4
2018-07-28T07:47:07.688Z,42.59
2018-07-28T07:48:18.021Z,42.4
2018-07-28T07:49:26.961Z,42.4
2018-07-28T07:50:36.624Z,42.4
2018-07-28T07:51:46.043Z,42.4
2018-07-28T07:52:55.199Z,42.79
2018-07-28T07:54:04.624Z,42.69
2018-07-28T07:55:13.523Z,42.49
2018-07-28T07:56:22.411Z,42.69
2018-07-28T07:57:31.814Z,42.47
2018-07-28T07:58:41.274Z,42.38
2018-07-28T07:59:50.677Z,42.57
2018-07-28T08:01:00.343Z,42.47
2018-07-28T08:02:09.755Z,42.3
2018-07-28T08:03:18.928Z,42.4
2018-07-28T08:04:27.834Z,42.69
2018-07-28T08:05:36.987Z,42.47
2018-07-28T08:06:46.133Z,42.59
2018-07-28T08:07:55.289Z,42.66
2018-07-28T08:09:04.206Z,42.79
2018-07-28T08:10:13.362Z,42.4
2018-07-28T08:11:22.775Z,42.88
2018-07-28T08:12:32.212Z,42.76
2018-07-28T08:13:42.025Z,42.79
2018-07-28T08:14:51.179Z,42.76
2018-07-28T08:16:00.082Z,43.05
2018-07-28T08:17:09.764Z,42.86
2018-07-28T08:18:19.174Z,42.86
2018-07-28T08:19:28.590Z,42.86
2018-07-28T08:20:37.991Z,42.66
2018-07-28T08:21:47.655Z,42.76
2018-07-28T08:22:56.549Z,42.96
2018-07-28T08:24:05.694Z,42.76
2018-07-28T08:25:14.857Z,42.86
2018-07-28T08:26:24.050Z,42.86
2018-07-28T08:27:33.283Z,42.76
2018-07-28T08:28:41.970Z,42.96
2018-07-28T08:29:51.393Z,42.96
2018-07-28T08:31:00.805Z,42.96
2018-07-28T08:32:10.525Z,42.86
2018-07-28T08:33:20.115Z,42.86
2018-07-28T08:34:30.132Z,43.05
2018-07-28T08:35:40.047Z,42.96
2018-07-28T08:36:49.475Z,42.76
2018-07-28T08:37:58.641Z,42.79
2018-07-28T08:39:07.585Z,42.79
2018-07-28T08:40:17.011Z,42.76
2018-07-28T08:41:26.307Z,42.59
2018-07-28T08:42:36.399Z,42.79
2018-07-28T08:43:45.732Z,42.98
2018-07-28T08:44:55.413Z,42.96
2018-07-28T08:46:04.079Z,42.76
2018-07-28T08:47:13.505Z,42.86
2018-07-28T08:48:22.923Z,42.57
2018-07-28T08:49:32.631Z,42.98
2018-07-28T08:50:42.845Z,42.88
2018-07-28T08:51:52.039Z,42.86
2018-07-28T08:53:01.710Z,43.15
2018-07-28T08:54:11.405Z,43.18
2018-07-28T08:55:20.567Z,43.25
2018-07-28T08:56:29.998Z,43.05
2018-07-28T08:57:38.902Z,43.25
2018-07-28T08:58:48.065Z,43.25
2018-07-28T08:59:57.213Z,43.25
2018-07-28T09:01:06.106Z,43.25
2018-07-28T09:02:15.268Z,43.25
2018-07-28T09:03:24.673Z,43.35
2018-07-28T09:04:33.838Z,43.35
2018-07-28T09:05:42.742Z,43.37
2018-07-28T09:06:52.687Z,43.35
2018-07-28T09:08:01.566Z,43.25
2018-07-28T09:09:10.738Z,43.05
2018-07-28T09:10:19.886Z,43.05
2018-07-28T09:11:29.034Z,43.15
2018-07-28T09:12:38.703Z,43.27
2018-07-28T09:13:47.607Z,42.98
2018-07-28T09:14:57.086Z,42.88
2018-07-28T09:16:06.493Z,43.08
2018-07-28T09:17:15.670Z,42.98
2018-07-28T09:18:24.564Z,42.98
2018-07-28T09:19:33.723Z,42.88
2018-07-28T09:20:43.131Z,42.88
2018-07-28T09:21:52.554Z,42.88
2018-07-28T09:23:01.735Z,42.79
2018-07-28T09:24:11.486Z,42.88
2018-07-28T09:25:20.912Z,42.59
2018-07-28T09:26:30.321Z,42.69
2018-07-28T09:27:38.969Z,42.88
2018-07-28T09:28:48.389Z,42.88
2018-07-28T09:29:57.289Z,42.88
2018-07-28T09:31:06.703Z,42.88
2018-07-28T09:32:16.117Z,42.88
2018-07-28T09:33:25.524Z,42.98
2018-07-28T09:34:35.176Z,42.79
2018-07-28T09:35:44.839Z,42.98
2018-07-28T09:36:53.544Z,42.98
2018-07-28T09:38:02.842Z,42.98
2018-07-28T09:39:12.009Z,43.08
2018-07-28T09:40:21.931Z,42.79
2018-07-28T09:41:30.821Z,43.08
2018-07-28T09:42:40.023Z,43.08
2018-07-28T09:43:49.705Z,43.08
2018-07-28T09:44:58.877Z,42.59
2018-07-28T09:46:08.021Z,43.08
2018-07-28T09:47:17.459Z,42.79
2018-07-28T09:48:26.352Z,42.79
2018-07-28T09:49:35.767Z,42.79
2018-07-28T09:50:45.429Z,42.59
2018-07-28T09:51:55.108Z,43.08
2018-07-28T09:53:04.552Z,42.59
2018-07-28T09:54:13.733Z,42.69
2018-07-28T09:55:23.130Z,42.88
2018-07-28T09:56:32.554Z,42.59
2018-07-28T09:57:41.457Z,42.59
2018-07-28T09:58:50.638Z,42.71
2018-07-28T10:00:00.076Z,43.1
2018-07-28T10:01:08.988Z,42.98
2018-07-28T10:02:18.404Z,43.08
2018-07-28T10:03:27.566Z,43.1
2018-07-28T10:04:36.472Z,42.69
2018-07-28T10:05:45.632Z,43.08
2018-07-28T10:06:55.565Z,42.69
2018-07-28T10:08:05.043Z,43.1
2018-07-28T10:09:14.464Z,42.9
2018-07-28T10:10:23.359Z,43
2018-07-28T10:11:33.017Z,42.71
2018-07-28T10:12:42.434Z,43.1
2018-07-28T10:13:51.841Z,42.61
2018-07-28T10:15:01.005Z,43.1
2018-07-28T10:16:10.565Z,43
2018-07-28T10:17:20.622Z,43.1
2018-07-28T10:18:30.304Z,43
2018-07-28T10:19:39.205Z,42.9
2018-07-28T10:20:48.390Z,43
2018-07-28T10:21:57.538Z,43
2018-07-28T10:23:06.570Z,42.9
2018-07-28T10:24:15.977Z,43
2018-07-28T10:25:25.129Z,42.9
2018-07-28T10:26:33.767Z,43
2018-07-28T10:27:43.439Z,42.9
2018-07-28T10:28:52.597Z,43
2018-07-28T10:30:02.040Z,43
2018-07-28T10:31:11.825Z,43
2018-07-28T10:32:20.976Z,43
2018-07-28T10:33:30.659Z,42.9
2018-07-28T10:34:40.072Z,43
2018-07-28T10:35:49.287Z,42.8
2018-07-28T10:36:58.451Z,43
2018-07-28T10:38:07.610Z,42.9
2018-07-28T10:39:17.259Z,43
2018-07-28T10:40:26.755Z,43
2018-07-28T10:41:35.648Z,42.9
2018-07-28T10:42:45.056Z,42.9
2018-07-28T10:43:54.974Z,43
2018-07-28T10:45:03.883Z,42.9
2018-07-28T10:46:13.544Z,43
2018-07-28T10:47:22.974Z,43
2018-07-28T10:48:32.425Z,42.9
2018-07-28T10:49:42.093Z,42.71
2018-07-28T10:50:51.787Z,42.8
2018-07-28T10:52:00.934Z,42.9
2018-07-28T10:53:10.082Z,42.9
2018-07-28T10:54:19.761Z,42.71
2018-07-28T10:55:29.006Z,42.71
2018-07-28T10:56:39.340Z,42.8
2018-07-28T10:57:48.511Z,42.9
2018-07-28T10:58:57.417Z,42.8
2018-07-28T11:00:06.696Z,43.1
2018-07-28T11:01:17.329Z,42.9
2018-07-28T11:02:27.258Z,42.8
2018-07-28T11:03:36.158Z,42.9
2018-07-28T11:04:45.824Z,42.9
2018-07-28T11:05:54.991Z,42.8
2018-07-28T11:07:04.676Z,42.8
2018-07-28T11:08:14.600Z,42.9
2018-07-28T11:09:23.759Z,42.9
2018-07-28T11:10:33.196Z,42.61
2018-07-28T11:11:42.347Z,42.61
2018-07-28T11:12:51.570Z,42.61
2018-07-28T11:14:00.991Z,42.61
2018-07-28T11:15:10.142Z,42.9
2018-07-28T11:16:19.047Z,43
2018-07-28T11:17:28.477Z,42.71
2018-07-28T11:18:37.983Z,42.8
2018-07-28T11:19:48.080Z,42.73
2018-07-28T11:20:56.718Z,43.02
2018-07-28T11:22:06.183Z,43.1
2018-07-28T11:23:15.122Z,43
2018-07-28T11:24:24.535Z,43.12
2018-07-28T11:25:34.253Z,42.93
2018-07-28T11:26:43.672Z,43.22
2018-07-28T11:27:53.127Z,43.02
2018-07-28T11:29:02.543Z,43.12
2018-07-28T11:30:11.450Z,43.19
2018-07-28T11:31:21.126Z,43.32
2018-07-28T11:32:30.275Z,43.12
2018-07-28T11:33:39.445Z,43.12
2018-07-28T11:34:48.609Z,43.22
2018-07-28T11:35:58.014Z,43.32
2018-07-28T11:37:07.162Z,43.32
2018-07-28T11:38:16.334Z,43.32
2018-07-28T11:39:25.741Z,43.22
2018-07-28T11:40:34.386Z,43.22
2018-07-28T11:41:43.563Z,43.32
2018-07-28T11:42:52.712Z,43.22
2018-07-28T11:44:01.630Z,43.32
2018-07-28T11:45:11.366Z,43.22
2018-07-28T11:46:21.074Z,43.02
2018-07-28T11:47:30.752Z,43.32
2018-07-28T11:48:39.664Z,43.41
2018-07-28T11:49:48.822Z,43.22
2018-07-28T11:50:57.454Z,43.61
2018-07-28T11:52:06.355Z,43.32
2018-07-28T11:53:15.767Z,43.32
2018-07-28T11:54:24.935Z,43.22
2018-07-28T11:55:34.348Z,43.51
2018-07-28T11:56:43.766Z,43.61
2018-07-28T11:57:53.168Z,43.49
2018-07-28T11:59:02.402Z,43.59
2018-07-28T12:00:11.547Z,43.61
2018-07-28T12:01:20.718Z,43.59
2018-07-28T12:02:30.121Z,43.61
2018-07-28T12:03:39.278Z,43.59
2018-07-28T12:04:48.724Z,43.61
2018-07-28T12:05:58.194Z,43.59
2018-07-28T12:07:07.082Z,43.51
2018-07-28T12:08:15.979Z,43.61
2018-07-28T12:09:24.891Z,43.51
2018-07-28T12:10:34.579Z,43.22
2018-07-28T12:11:44.002Z,43.29
2018-07-28T12:12:54.177Z,43.32
2018-07-28T12:14:03.082Z,43.41
2018-07-28T12:15:12.504Z,43.41
2018-07-28T12:16:21.398Z,43.41
2018-07-28T12:17:30.806Z,43.51
2018-07-28T12:18:40.297Z,43.29
2018-07-28T12:19:49.724Z,43.51
2018-07-28T12:20:58.913Z,43.41
2018-07-28T12:22:08.584Z,43.22
2018-07-28T12:23:17.483Z,43.51
2018-07-28T12:24:26.196Z,43.41
2018-07-28T12:25:35.445Z,43.51
2018-07-28T12:26:44.598Z,43.51
2018-07-28T12:27:54.003Z,43.41
2018-07-28T12:29:03.167Z,43.41
2018-07-28T12:30:12.829Z,43.41
2018-07-28T12:31:22.002Z,43.41
2018-07-28T12:32:31.178Z,43.41
2018-07-28T12:33:40.329Z,43.51
2018-07-28T12:34:49.785Z,43.39
2018-07-28T12:35:59.413Z,43.8
2018-07-28T12:37:08.833Z,43.51
2018-07-28T12:38:18.238Z,43.71
2018-07-28T12:39:27.392Z,43.8
2018-07-28T12:40:36.294Z,43.8
2018-07-28T12:41:45.731Z,43.71
2018-07-28T12:42:55.145Z,43.71
2018-07-28T12:44:04.034Z,43.71
2018-07-28T12:45:13.197Z,43.8
2018-07-28T12:46:22.859Z,43.61
2018-07-28T12:47:32.259Z,43.9
2018-07-28T12:48:41.916Z,43.51
2018-07-28T12:49:51.419Z,43.9
2018-07-28T12:51:00.820Z,43.99
2018-07-28T12:52:10.219Z,43.99
2018-07-28T12:53:19.136Z,43.9
2018-07-28T12:54:28.036Z,44.09
2018-07-28T12:55:37.562Z,44.09
2018-07-28T12:56:46.729Z,43.99
2018-07-28T12:57:56.396Z,43.99
2018-07-28T12:59:05.818Z,44.19
2018-07-28T13:00:15.499Z,44.29
2018-07-28T13:01:24.911Z,44.19
2018-07-28T13:02:34.638Z,44.09
2018-07-28T13:03:44.057Z,44.09
2018-07-28T13:04:53.283Z,44.19
2018-07-28T13:06:02.700Z,43.99
2018-07-28T13:07:12.116Z,43.99
2018-07-28T13:08:21.111Z,43.99
2018-07-28T13:09:30.321Z,43.99
2018-07-28T13:10:39.991Z,44.09
2018-07-28T13:11:48.904Z,43.99
2018-07-28T13:12:57.827Z,43.99
2018-07-28T13:14:06.725Z,43.99
2018-07-28T13:15:16.131Z,43.99
2018-07-28T13:16:25.291Z,43.99
2018-07-28T13:17:34.995Z,44.09
2018-07-28T13:18:44.677Z,43.9
2018-07-28T13:19:53.326Z,44.09
2018-07-28T13:21:02.502Z,43.99
2018-07-28T13:22:12.171Z,43.99
2018-07-28T13:23:21.338Z,44.38
2018-07-28T13:24:30.762Z,44.19
2018-07-28T13:25:40.423Z,44.38
2018-07-28T13:26:49.837Z,44.38
2018-07-28T13:27:59.009Z,44.68
2018-07-28T13:29:07.673Z,44.38
2018-07-28T13:30:17.104Z,44.68
2018-07-28T13:31:25.764Z,44.58
2018-07-28T13:32:35.205Z,44.58
2018-07-28T13:33:45.121Z,44.58
2018-07-28T13:34:54.029Z,44.58
2018-07-28T13:36:02.921Z,44.58
2018-07-28T13:37:12.616Z,44.48
2018-07-28T13:38:21.781Z,44.48
2018-07-28T13:39:30.930Z,44.58
2018-07-28T13:40:40.599Z,44.58
2018-07-28T13:41:50.014Z,44.19
2018-07-28T13:42:59.686Z,44.19
2018-07-28T13:44:09.091Z,44.29
2018-07-28T13:45:18.248Z,44.58
2018-07-28T13:46:27.402Z,44.29
2018-07-28T13:47:36.817Z,44.29
2018-07-28T13:48:46.332Z,44.38
2018-07-28T13:49:56.024Z,44.29
2018-07-28T13:51:05.442Z,44.38
2018-07-28T13:52:14.853Z,44.38
2018-07-28T13:53:24.705Z,44.38
2018-07-28T13:54:34.412Z,44.38
2018-07-28T13:55:43.839Z,44.38
2018-07-28T13:56:53.524Z,44.38
2018-07-28T13:58:03.212Z,44.29
2018-07-28T13:59:12.226Z,44.29
2018-07-28T14:00:22.014Z,44.29
2018-07-28T14:01:32.265Z,44.29
2018-07-28T14:02:41.695Z,44.29
2018-07-28T14:03:51.374Z,44.38
2018-07-28T14:05:01.063Z,44.38
2018-07-28T14:06:11.122Z,44.38
2018-07-28T14:07:21.294Z,44.38
2018-07-28T14:08:30.453Z,44.48
2018-07-28T14:09:40.137Z,44.38
2018-07-28T14:10:49.294Z,44.48
2018-07-28T14:11:58.446Z,44.29
2018-07-28T14:13:07.392Z,44.38
2018-07-28T14:14:16.592Z,44.38
2018-07-28T14:15:25.945Z,44.38
2018-07-28T14:16:34.940Z,44.38
2018-07-28T14:17:44.704Z,44.38
2018-07-28T14:18:54.406Z,44.48
2018-07-28T14:20:03.620Z,44.48
2018-07-28T14:21:12.786Z,44.38
2018-07-28T14:22:22.245Z,44.38
2018-07-28T14:23:32.125Z,44.29
2018-07-28T14:24:41.862Z,44.38
2018-07-28T14:25:51.008Z,44.19
2018-07-28T14:27:00.430Z,44.48
2018-07-28T14:28:09.855Z,44.19
2018-07-28T14:29:18.745Z,44.58
2018-07-28T14:30:28.455Z,44.78
2018-07-28T14:31:38.010Z,44.78
2018-07-28T14:32:47.694Z,44.68
2018-07-28T14:33:56.861Z,44.78
2018-07-28T14:35:06.290Z,44.58
2018-07-28T14:36:15.697Z,44.58
2018-07-28T14:37:24.841Z,44.48
2018-07-28T14:38:34.267Z,44.29
2018-07-28T14:39:43.188Z,44.38
2018-07-28T14:40:52.094Z,44.19
2018-07-28T14:42:01.260Z,44.19
2018-07-28T14:43:10.922Z,44.19
2018-07-28T14:44:20.099Z,44.19
2018-07-28T14:45:29.536Z,44.19
2018-07-28T14:46:38.946Z,44.29
2018-07-28T14:47:48.359Z,44.48
2018-07-28T14:48:57.774Z,44.29
2018-07-28T14:50:07.284Z,44.48
2018-07-28T14:51:16.944Z,44.29
2018-07-28T14:52:26.632Z,44.29
2018-07-28T14:53:36.057Z,44.29
2018-07-28T14:54:45.721Z,44.29
2018-07-28T14:55:54.895Z,44.29
2018-07-28T14:57:04.312Z,44.29
2018-07-28T14:58:13.931Z,44.38